Time;durP1;ratioP1;P1;durP2;ratioP2;P2;SDS_P1;SDS_P2;PMS_P1;PMS_P2;Temp;Humidity;BMP_temperature;BMP_pressure;BME280_temperature;BME280_humidity;BME280_pressure;Samples;Min_cycle;Max_cycle;Signal;HPM_P1;HPM_P2
2021/10/13 00:00:20;;;;;;;48.20;25.05;;;;;;;9.39;96.68;100224.52;1788050;80;20955;-45
2021/10/13 00:02:46;;;;;;;37.30;23.50;;;;;;;9.41;96.47;100223.60;1783801;79;21014;-45
2021/10/13 00:05:16;;;;;;;38.05;24.32;;;;;;;9.41;96.41;100217.14;1778339;80;20967;-46
2021/10/13 00:07:43;;;;;;;41.30;25.25;;;;;;;9.39;96.66;100212.44;1778456;80;21082;-46
2021/10/13 00:10:09;;;;;;;40.52;23.95;;;;;;;9.36;96.88;100210.37;1749895;80;20912;-46
2021/10/13 00:12:36;;;;;;;38.13;23.95;;;;;;;9.34;97.04;100215.55;1778331;80;20946;-46
2021/10/13 00:15:06;;;;;;;40.20;24.60;;;;;;;9.32;97.25;100212.14;1778374;80;20869;-46
2021/10/13 00:17:33;;;;;;;43.70;26.52;;;;;;;9.29;97.35;100210.45;1778387;80;20825;-46
2021/10/13 00:20:02;;;;;;;48.95;24.30;;;;;;;9.30;97.51;100213.91;1778383;80;21186;-46
2021/10/13 00:22:29;;;;;;;66.10;26.12;;;;;;;9.30;97.53;100215.20;1778204;80;21433;-46
2021/10/13 00:24:55;;;;;;;57.08;24.47;;;;;;;9.31;97.54;100213.86;1778198;80;21390;-46
2021/10/13 00:27:22;;;;;;;59.15;24.70;;;;;;;9.32;97.35;100216.02;1778123;80;20922;-46
2021/10/13 00:29:48;;;;;;;48.65;25.00;;;;;;;9.32;97.19;100210.40;1778469;80;21484;-46
2021/10/13 00:32:14;;;;;;;42.33;23.65;;;;;;;9.34;97.02;100210.39;1749896;80;21142;-46
2021/10/13 00:34:41;;;;;;;39.35;25.05;;;;;;;9.35;96.89;100210.80;1778409;80;20880;-46
2021/10/13 00:37:07;;;;;;;46.30;23.83;;;;;;;9.35;96.80;100208.21;1778282;80;20912;-45
2021/10/13 00:39:34;;;;;;;41.35;23.80;;;;;;;9.37;96.71;100203.88;1778224;80;20900;-46
2021/10/13 00:42:00;;;;;;;42.55;24.40;;;;;;;9.36;96.61;100202.16;1778315;80;20860;-46
2021/10/13 00:44:26;;;;;;;39.13;23.20;;;;;;;9.36;96.50;100200.88;1778270;80;21144;-46
2021/10/13 00:46:53;;;;;;;39.60;23.00;;;;;;;9.38;96.37;100200.41;1778149;80;20824;-46
2021/10/13 00:49:19;;;;;;;38.48;23.20;;;;;;;9.40;96.20;100197.35;1778218;80;21541;-45
2021/10/13 00:51:46;;;;;;;35.30;23.25;;;;;;;9.41;96.08;100196.47;1778273;80;21225;-43
2021/10/13 00:54:12;;;;;;;34.90;22.30;;;;;;;9.39;95.98;100196.94;1778274;80;20904;-46
2021/10/13 00:56:39;;;;;;;45.35;23.10;;;;;;;9.40;95.89;100205.56;1749644;80;21151;-44
2021/10/13 00:59:05;;;;;;;35.33;23.15;;;;;;;9.40;95.83;100197.35;1778237;80;20872;-44
2021/10/13 01:01:42;;;;;;;36.40;22.82;;;;;;;9.40;95.70;100193.48;1749858;80;20912;-45
2021/10/13 01:04:33;;;;;;;36.25;22.90;;;;;;;9.40;95.54;100191.35;1783841;79;20860;-45
2021/10/13 01:07:23;;;;;;;31.42;21.70;;;;;;;9.40;95.39;100181.02;1787906;80;20943;-46
2021/10/13 01:10:13;;;;;;;37.42;22.93;;;;;;;9.41;95.34;100190.02;1788019;80;21109;-45
2021/10/13 01:13:12;;;;;;;44.65;24.02;;;;;;;9.43;95.12;100192.59;1754544;80;20935;-46
2021/10/13 01:16:09;;;;;;;43.90;23.95;;;;;;;9.43;95.06;100177.08;1787729;80;20950;-44
2021/10/13 01:18:45;;;;;;;;;;;;;;;9.42;94.98;100175.38;1790614;80;21468;-46
2021/10/13 01:21:34;;;;;;;35.52;21.42;;;;;;;9.40;94.77;100183.14;1787505;80;20112;-46
2021/10/13 01:24:23;;;;;;;36.38;22.70;;;;;;;9.37;94.66;100187.08;1788005;80;21118;-46
2021/10/13 01:27:35;;;;;;;38.80;22.98;;;;;;;9.30;94.79;100188.91;1788028;80;21402;-46
2021/10/13 01:30:03;;;;;;;34.67;21.95;;;;;;;9.26;94.95;100198.05;1787964;80;20852;-45
2021/10/13 01:32:34;;;;;;;41.23;22.32;;;;;;;9.23;95.15;100191.66;1787795;80;20899;-46
2021/10/13 01:35:00;;;;;;;30.50;20.25;;;;;;;9.23;95.32;100198.11;1787819;80;20813;-45
2021/10/13 01:37:48;;;;;;;42.35;21.55;;;;;;;9.22;95.46;100196.37;1787970;80;21134;-45
2021/10/13 01:40:16;;;;;;;34.35;22.65;;;;;;;9.24;95.57;100198.52;1787719;80;20872;-45
2021/10/13 01:42:46;;;;;;;34.48;21.40;;;;;;;9.24;95.40;100196.77;1787973;80;20876;-45
2021/10/13 01:45:12;;;;;;;34.92;20.68;;;;;;;9.25;95.16;100201.52;1788012;80;20939;-45
2021/10/13 01:47:39;;;;;;;31.90;21.25;;;;;;;9.26;95.11;100204.05;1787903;80;20959;-45
2021/10/13 01:50:07;;;;;;;32.60;21.10;;;;;;;9.26;95.17;100202.77;1787786;80;21108;-45
2021/10/13 01:52:33;;;;;;;34.10;22.13;;;;;;;9.28;95.20;100201.45;1787758;80;21357;-45
2021/10/13 01:55:02;;;;;;;30.95;20.72;;;;;;;9.28;95.30;100202.75;1787807;80;20911;-45
2021/10/13 01:57:29;;;;;;;30.57;19.95;;;;;;;9.29;95.37;100202.70;1755277;80;20915;-45
2021/10/13 02:00:01;;;;;;;35.68;20.15;;;;;;;9.29;95.44;100202.70;1787797;80;20923;-45
2021/10/13 02:02:31;;;;;;;32.48;21.62;;;;;;;9.29;95.37;100200.58;1787828;80;21029;-45
2021/10/13 02:04:58;;;;;;;34.30;21.35;;;;;;;9.28;95.36;100198.42;1753580;80;20876;-44
2021/10/13 02:07:29;;;;;;;31.10;20.88;;;;;;;9.26;95.47;100196.30;1778309;80;21017;-46
2021/10/13 02:10:00;;;;;;;37.30;21.20;;;;;;;9.25;95.63;100192.02;1778429;80;21414;-46
2021/10/13 02:12:26;;;;;;;35.17;21.42;;;;;;;9.22;95.82;100189.48;1778230;80;20935;-46
2021/10/13 02:14:53;;;;;;;31.40;21.25;;;;;;;9.20;95.98;100181.75;1778365;80;21860;-45
2021/10/13 02:17:20;;;;;;;34.92;22.70;;;;;;;9.20;96.27;100176.59;1778110;80;21402;-46
2021/10/13 02:19:46;;;;;;;32.03;20.35;;;;;;;9.23;96.30;100181.31;1778230;80;20948;-45
2021/10/13 02:22:13;;;;;;;28.17;19.95;;;;;;;9.23;96.23;100175.70;1778165;80;20916;-45
2021/10/13 02:24:45;;;;;;;29.77;19.85;;;;;;;9.25;96.09;100165.35;1778126;80;20912;-45
2021/10/13 02:27:41;;;;;;;29.18;20.05;;;;;;;9.24;96.03;100160.61;1778181;80;21144;-44
2021/10/13 02:30:09;;;;;;;34.60;22.02;;;;;;;9.26;96.05;100161.89;1776937;80;21537;-45
2021/10/13 02:32:35;;;;;;;33.33;20.68;;;;;;;9.27;95.96;100159.72;1778267;80;20856;-46
2021/10/13 02:35:03;;;;;;;29.57;20.02;;;;;;;9.29;95.83;100164.41;1778303;80;20911;-46
2021/10/13 02:37:30;;;;;;;30.37;19.45;;;;;;;9.30;95.64;100156.63;1778002;80;20899;-46
2021/10/13 02:39:58;;;;;;;33.67;20.52;;;;;;;9.31;95.43;100151.87;1778352;80;20912;-46
2021/10/13 02:42:24;;;;;;;32.98;20.80;;;;;;;9.30;95.30;100166.12;1778081;80;20904;-44
2021/10/13 02:44:51;;;;;;;32.40;18.57;;;;;;;9.27;95.21;100177.80;1778169;80;20927;-44
2021/10/13 02:47:32;;;;;;;47.38;20.32;;;;;;;9.25;95.19;100180.39;1778119;80;20991;-44
2021/10/13 02:50:27;;;;;;;74.53;22.98;;;;;;;9.24;95.11;100178.69;1778254;80;21496;-44
2021/10/13 02:53:40;;;;;;;75.00;23.20;;;;;;;9.22;94.98;100175.71;1775478;80;20983;-44
2021/10/13 02:56:17;;;;;;;84.90;22.17;;;;;;;9.20;94.91;100179.17;1778082;80;20877;-44
2021/10/13 02:58:48;;;;;;;99.00;25.65;;;;;;;9.19;94.73;100181.34;1777541;80;20908;-46
2021/10/13 03:01:16;;;;;;;58.42;21.95;;;;;;;9.21;94.68;100192.95;1777031;80;21438;-45
2021/10/13 03:03:53;;;;;;;58.83;21.90;;;;;;;9.22;94.69;100198.95;1749744;80;21393;-46
2021/10/13 03:09:10;;;;;;;33.13;19.55;;;;;;;9.24;94.82;100173.98;1798660;79;23018;-45
2021/10/13 03:11:36;;;;;;;38.28;20.30;;;;;;;9.19;94.93;100171.47;1758240;81;20971;-45
2021/10/13 03:14:03;;;;;;;33.20;18.85;;;;;;;9.19;95.02;100168.43;1739094;81;21124;-45
2021/10/13 03:16:29;;;;;;;28.65;18.23;;;;;;;9.19;95.11;100167.14;1758282;81;20869;-45
2021/10/13 03:18:56;;;;;;;34.67;19.37;;;;;;;9.18;94.97;100174.48;1758086;81;20983;-44
2021/10/13 03:21:29;;;;;;;35.38;18.80;;;;;;;9.17;94.89;100175.36;1758099;81;20924;-45
2021/10/13 03:23:55;;;;;;;36.13;19.95;;;;;;;9.16;94.90;100177.52;1758244;81;20924;-45
2021/10/13 03:26:22;;;;;;;34.60;19.00;;;;;;;9.17;94.87;100178.39;1758328;81;21098;-45
2021/10/13 03:28:49;;;;;;;35.25;18.05;;;;;;;9.14;94.80;100174.12;1758161;81;20896;-45
2021/10/13 03:31:17;;;;;;;46.95;18.77;;;;;;;9.16;94.75;100185.73;1758296;81;20987;-45
2021/10/13 03:33:49;;;;;;;30.82;18.00;;;;;;;9.16;94.70;100180.56;1758473;81;21474;-45
2021/10/13 03:36:15;;;;;;;36.23;19.05;;;;;;;9.14;94.70;100175.87;1758218;81;20912;-45
2021/10/13 03:38:41;;;;;;;34.05;17.17;;;;;;;9.14;94.63;100181.87;1758310;81;21107;-45
2021/10/13 03:41:08;;;;;;;35.45;18.00;;;;;;;9.17;94.55;100180.98;1758022;81;20995;-46
2021/10/13 03:43:34;;;;;;;29.55;18.17;;;;;;;9.19;94.38;100177.47;1758266;81;21473;-46
2021/10/13 03:46:01;;;;;;;32.45;18.87;;;;;;;9.22;94.32;100176.58;1758128;81;20975;-44
2021/10/13 03:48:30;;;;;;;29.65;19.55;;;;;;;9.23;94.28;100171.83;1758285;81;20971;-45
2021/10/13 03:50:56;;;;;;;24.45;17.77;;;;;;;9.22;94.19;100172.70;1752097;81;23165;-45
2021/10/13 03:53:22;;;;;;;33.25;17.65;;;;;;;9.25;94.23;100175.69;1749838;80;21015;-45
2021/10/13 03:55:49;;;;;;;28.80;17.62;;;;;;;9.27;94.15;100168.77;1720165;82;20933;-45
2021/10/13 03:58:15;;;;;;;26.75;18.80;;;;;;;9.30;94.05;100167.41;1749967;82;20999;-45
2021/10/13 04:00:42;;;;;;;28.62;18.90;;;;;;;9.30;93.95;100169.99;1750000;82;20877;-45
2021/10/13 04:03:08;;;;;;;26.35;17.57;;;;;;;9.31;93.79;100169.11;1749909;82;21209;-45
2021/10/13 04:05:35;;;;;;;24.82;17.55;;;;;;;9.30;93.68;100172.58;1749763;82;20972;-45
2021/10/13 04:08:05;;;;;;;25.70;16.95;;;;;;;9.27;93.71;100179.09;1744356;81;20976;-46
2021/10/13 04:10:32;;;;;;;30.37;17.45;;;;;;;9.26;93.86;100173.52;1716683;82;21463;-46
2021/10/13 04:12:58;;;;;;;29.85;18.23;;;;;;;9.26;94.20;100166.59;1736792;82;20975;-46
2021/10/13 04:15:25;;;;;;;31.33;17.73;;;;;;;9.27;94.18;100157.14;1736645;82;21232;-46
2021/10/13 04:17:51;;;;;;;30.45;17.57;;;;;;;9.28;94.01;100161.42;1736647;82;20913;-46
2021/10/13 04:20:18;;;;;;;26.55;17.48;;;;;;;9.27;93.93;100150.22;1736173;82;20870;-46
2021/10/13 04:22:45;;;;;;;38.67;19.50;;;;;;;9.26;93.81;100138.64;1715304;82;20992;-46
2021/10/13 04:25:11;;;;;;;33.83;17.82;;;;;;;9.23;93.78;100131.79;1736245;82;20945;-46
2021/10/13 04:27:39;;;;;;;25.55;18.05;;;;;;;9.22;93.77;100132.67;1736209;81;22093;-46
2021/10/13 04:30:07;;;;;;;27.13;18.65;;;;;;;9.22;93.80;100138.27;1736109;82;20972;-45
2021/10/13 04:32:33;;;;;;;37.50;18.98;;;;;;;9.19;93.90;100142.60;1715656;82;20968;-46
2021/10/13 04:35:00;;;;;;;34.13;18.92;;;;;;;9.18;93.96;100140.91;1736216;82;20932;-46
2021/10/13 04:37:26;;;;;;;32.13;18.32;;;;;;;9.19;93.99;100145.19;1736166;82;21399;-45
2021/10/13 04:39:52;;;;;;;30.05;18.82;;;;;;;9.22;93.97;100143.42;1736094;82;21121;-46
2021/10/13 04:42:19;;;;;;;31.37;18.65;;;;;;;9.23;94.01;100157.62;1736192;82;20894;-46
2021/10/13 04:44:45;;;;;;;27.48;18.57;;;;;;;9.23;94.09;100160.66;1736124;82;21513;-46
2021/10/13 04:47:12;;;;;;;27.98;17.85;;;;;;;9.22;94.22;100161.08;1736382;82;21462;-45
2021/10/13 04:49:38;;;;;;;27.40;17.62;;;;;;;9.23;94.36;100155.03;1736084;82;20858;-45
2021/10/13 04:52:05;;;;;;;25.80;16.97;;;;;;;9.23;94.54;100161.49;1736208;82;21089;-45
2021/10/13 04:54:32;;;;;;;29.23;18.45;;;;;;;9.23;94.71;100167.95;1715471;82;21386;-44
2021/10/13 04:56:59;;;;;;;29.45;17.80;;;;;;;9.23;95.01;100163.24;1715242;82;20988;-44
2021/10/13 04:59:25;;;;;;;27.77;17.15;;;;;;;9.26;95.26;100165.77;1736233;82;20929;-46
2021/10/13 05:01:51;;;;;;;31.40;15.93;;;;;;;9.30;95.29;100169.99;1736254;82;20827;-45
2021/10/13 05:04:18;;;;;;;26.52;18.40;;;;;;;9.32;95.38;100163.06;1736068;82;21131;-46
2021/10/13 05:06:45;;;;;;;35.28;19.55;;;;;;;9.33;95.33;100155.27;1736118;82;21006;-46
2021/10/13 05:09:12;;;;;;;32.48;19.10;;;;;;;9.36;95.39;100156.13;1746774;81;20931;-46
2021/10/13 05:11:39;;;;;;;28.57;19.20;;;;;;;9.40;95.27;100147.44;1750196;81;21693;-46
2021/10/13 05:14:06;;;;;;;31.85;18.27;;;;;;;9.44;95.15;100151.66;1750419;82;21596;-45
2021/10/13 05:16:32;;;;;;;41.00;19.05;;;;;;;9.46;95.00;100170.56;1750140;82;21888;-45
2021/10/13 05:18:59;;;;;;;32.67;20.68;;;;;;;9.46;94.86;100175.27;1722528;82;20908;-45
2021/10/13 05:21:25;;;;;;;32.45;18.92;;;;;;;9.47;94.77;100175.72;1750078;82;20873;-44
2021/10/13 05:23:52;;;;;;;33.38;19.30;;;;;;;9.51;94.67;100174.36;1750179;82;20865;-45
2021/10/13 05:26:18;;;;;;;33.45;18.75;;;;;;;9.53;94.52;100171.31;1750081;82;20971;-45
2021/10/13 05:28:44;;;;;;;29.23;18.57;;;;;;;9.54;94.49;100167.84;1750141;82;21727;-45
2021/10/13 05:31:11;;;;;;;28.95;18.27;;;;;;;9.54;94.55;100166.55;1750174;82;21474;-45
2021/10/13 05:33:38;;;;;;;30.57;18.57;;;;;;;9.54;94.56;100161.39;1750009;82;20881;-44
2021/10/13 05:36:04;;;;;;;27.62;18.02;;;;;;;9.54;94.58;100164.80;1750096;82;21478;-45
2021/10/13 05:38:32;;;;;;;35.30;18.90;;;;;;;9.60;94.58;100165.14;1750250;82;21323;-44
2021/10/13 05:40:58;;;;;;;29.50;17.55;;;;;;;9.65;94.47;100164.60;1750042;82;21082;-44
2021/10/13 05:43:24;;;;;;;33.45;19.75;;;;;;;9.67;94.32;100158.13;1750233;82;20940;-46
2021/10/13 05:45:51;;;;;;;33.05;18.25;;;;;;;9.70;94.12;100160.65;1750050;82;20916;-43
2021/10/13 05:48:17;;;;;;;34.33;19.15;;;;;;;9.74;93.95;100160.99;1750146;82;20865;-43
2021/10/13 05:50:44;;;;;;;33.00;19.37;;;;;;;9.76;93.91;100150.18;1722438;82;20975;-43
2021/10/13 05:53:10;;;;;;;29.35;18.10;;;;;;;9.77;93.76;100153.17;1750161;82;21193;-43
2021/10/13 05:55:37;;;;;;;31.52;18.45;;;;;;;9.81;93.73;100150.09;1722334;82;20900;-43
2021/10/13 05:58:05;;;;;;;27.50;18.73;;;;;;;9.84;93.63;100161.20;1750162;82;20928;-46
2021/10/13 06:00:32;;;;;;;31.15;19.77;;;;;;;9.87;93.62;100167.64;1750070;82;21458;-46
2021/10/13 06:02:59;;;;;;;32.15;19.20;;;;;;;9.89;93.52;100172.76;1750359;82;21445;-46
2021/10/13 06:05:26;;;;;;;47.78;19.02;;;;;;;9.93;93.41;100167.93;1749984;82;21151;-45
2021/10/13 06:07:53;;;;;;;32.00;19.50;;;;;;;9.98;93.28;100164.84;1721296;81;20968;-45
2021/10/13 06:10:20;;;;;;;38.78;20.65;;;;;;;10.03;93.26;100157.83;1736020;82;20869;-46
2021/10/13 06:12:46;;;;;;;31.75;19.92;;;;;;;10.11;93.02;100149.05;1736125;82;20929;-46
2021/10/13 06:15:13;;;;;;;37.73;20.12;;;;;;;10.15;92.72;100149.38;1736306;81;20917;-46
2021/10/13 06:17:40;;;;;;;36.73;20.97;;;;;;;10.23;92.60;100153.97;1736270;82;21199;-46
2021/10/13 06:20:08;;;;;;;35.00;21.10;;;;;;;10.30;92.29;100133.97;1735971;82;21451;-46
2021/10/13 06:22:34;;;;;;;32.38;20.85;;;;;;;10.37;91.93;100131.67;1715104;82;20973;-46
2021/10/13 06:25:01;;;;;;;36.10;20.30;;;;;;;10.44;91.70;100132.39;1736104;82;21484;-46
2021/10/13 06:27:30;;;;;;;37.88;21.70;;;;;;;10.49;91.37;100129.28;1736070;82;21503;-46
2021/10/13 06:29:56;;;;;;;34.60;21.75;;;;;;;10.59;91.38;100126.00;1736131;82;20933;-46
2021/10/13 06:32:25;;;;;;;38.98;21.52;;;;;;;10.67;90.90;100121.95;1736053;82;20961;-46
2021/10/13 06:34:53;;;;;;;43.38;22.40;;;;;;;10.72;90.81;100123.55;1735227;82;20909;-45
2021/10/13 06:37:20;;;;;;;42.98;23.38;;;;;;;10.83;90.70;100121.12;1736215;81;20901;-45
2021/10/13 06:39:46;;;;;;;39.23;24.37;;;;;;;10.93;90.71;100123.91;1736083;82;20854;-46
2021/10/13 06:42:16;;;;;;;49.58;24.77;;;;;;;11.00;90.05;100132.37;1736007;82;21169;-46
2021/10/13 06:44:44;;;;;;;46.00;25.00;;;;;;;11.04;89.77;100136.13;1734120;82;21343;-47
2021/10/13 06:47:15;;;;;;;43.85;23.38;;;;;;;11.09;89.27;100141.20;1735694;82;20929;-46
2021/10/13 06:49:44;;;;;;;47.10;26.27;;;;;;;11.12;89.36;100150.64;1735061;82;21055;-44
2021/10/13 06:52:10;;;;;;;46.25;26.37;;;;;;;11.18;89.06;100159.09;1736103;82;21565;-45
2021/10/13 06:54:36;;;;;;;41.18;25.95;;;;;;;11.21;88.52;100166.77;1736039;82;21823;-45
2021/10/13 06:57:03;;;;;;;46.77;26.77;;;;;;;11.21;88.42;100174.55;1735959;82;20929;-46
2021/10/13 06:59:30;;;;;;;43.30;26.45;;;;;;;11.24;88.40;100174.06;1735884;81;20977;-45
2021/10/13 07:01:58;;;;;;;55.80;28.05;;;;;;;11.21;88.21;100177.14;1736100;82;20996;-47
2021/10/13 07:04:29;;;;;;;41.13;25.68;;;;;;;11.20;88.23;100176.73;1736145;82;20929;-45
2021/10/13 07:06:57;;;;;;;59.55;31.95;;;;;;;11.23;88.05;100191.79;1735293;82;21151;-44
2021/10/13 07:09:27;;;;;;;47.03;30.62;;;;;;;11.20;88.27;100193.57;1724101;81;21517;-46
2021/10/13 07:11:53;;;;;;;67.42;37.13;;;;;;;11.20;88.55;100201.80;1757924;81;20892;-44
2021/10/13 07:14:20;;;;;;;51.30;26.48;;;;;;;11.18;88.71;100209.60;1757774;81;20952;-44
2021/10/13 07:16:47;;;;;;;51.08;26.05;;;;;;;11.16;88.80;100189.83;1730483;81;20951;-44
2021/10/13 07:19:14;;;;;;;41.08;24.60;;;;;;;11.10;88.76;100190.81;1757739;81;21098;-45
2021/10/13 07:21:45;;;;;;;49.23;26.75;;;;;;;11.01;88.96;100187.17;1757558;81;21481;-45
2021/10/13 07:24:13;;;;;;;51.63;24.02;;;;;;;10.95;89.22;100179.53;1729458;81;20908;-45
2021/10/13 07:26:45;;;;;;;41.30;24.20;;;;;;;10.93;89.47;100175.23;1757843;81;21015;-46
2021/10/13 07:29:12;;;;;;;42.50;23.83;;;;;;;10.90;89.56;100174.48;1757823;81;21502;-45
2021/10/13 07:31:46;;;;;;;42.17;23.73;;;;;;;10.84;89.93;100170.30;1758054;81;21123;-44
2021/10/13 07:34:12;;;;;;;57.45;26.55;;;;;;;10.75;90.56;100171.82;1757826;81;20924;-43
2021/10/13 07:36:38;;;;;;;63.42;24.98;;;;;;;10.69;91.14;100176.69;1758243;81;21385;-45
2021/10/13 07:39:09;;;;;;;73.05;24.60;;;;;;;10.67;91.57;100180.19;1757803;81;21461;-46
2021/10/13 07:41:38;;;;;;;103.22;27.65;;;;;;;10.61;92.01;100188.51;1757737;81;21413;-46
2021/10/13 07:44:07;;;;;;;168.40;30.00;;;;;;;10.59;92.39;100206.23;1757943;81;21965;-45
2021/10/13 07:46:34;;;;;;;104.92;30.57;;;;;;;10.54;92.70;100219.30;1757458;81;20987;-45
2021/10/13 07:49:00;;;;;;;98.85;30.27;;;;;;;10.51;93.20;100224.55;1757805;81;20928;-46
2021/10/13 07:51:27;;;;;;;49.33;25.95;;;;;;;10.49;93.43;100188.80;1757873;81;20975;-45
2021/10/13 07:53:53;;;;;;;39.65;22.98;;;;;;;10.45;93.69;100152.20;1757874;81;21011;-46
2021/10/13 07:56:21;;;;;;;38.88;24.77;;;;;;;10.46;94.10;100140.97;1754623;81;21888;-45
2021/10/13 07:58:49;;;;;;;41.73;25.80;;;;;;;10.51;94.47;100138.28;1758054;81;20892;-45
2021/10/13 08:01:18;;;;;;;43.28;23.73;;;;;;;10.54;94.91;100140.80;1757906;81;20980;-45
2021/10/13 08:03:47;;;;;;;37.80;22.30;;;;;;;10.58;95.24;100147.17;1758321;81;20964;-44
2021/10/13 08:06:14;;;;;;;38.28;23.98;;;;;;;10.58;95.30;100148.89;1757619;81;21016;-46
2021/10/13 08:08:40;;;;;;;44.00;22.58;;;;;;;10.52;95.65;100152.92;1755033;81;21091;-45
2021/10/13 08:11:13;;;;;;;40.33;23.75;;;;;;;10.54;96.07;100177.03;1736142;82;21493;-45
2021/10/13 08:13:45;;;;;;;47.27;22.13;;;;;;;10.54;96.25;100191.27;1736215;82;21557;-46
2021/10/13 08:16:13;;;;;;;41.83;22.55;;;;;;;10.55;96.31;100195.55;1736166;82;21553;-44
2021/10/13 08:18:40;;;;;;;56.33;23.15;;;;;;;10.51;96.25;100207.73;1736414;82;21423;-44
2021/10/13 08:21:06;;;;;;;44.45;22.58;;;;;;;10.47;96.36;100209.52;1736145;82;21065;-44
2021/10/13 08:23:33;;;;;;;50.60;23.62;;;;;;;10.43;96.51;100201.42;1736185;82;20941;-44
2021/10/13 08:26:00;;;;;;;42.85;22.10;;;;;;;10.38;96.72;100206.25;1736197;81;21403;-45
2021/10/13 08:32:13;;;;;;;91.40;26.40;;;;;;;10.33;97.14;100214.97;1736358;81;21570;-45
2021/10/13 08:34:44;;;;;;;132.32;27.25;;;;;;;10.30;97.63;100221.50;1736119;82;21090;-45
2021/10/13 08:37:10;;;;;;;55.92;25.48;;;;;;;10.30;98.00;100221.50;1736432;82;21530;-46
2021/10/13 08:39:39;;;;;;;59.80;26.45;;;;;;;10.32;98.27;100230.51;1736100;82;20917;-46
2021/10/13 08:42:05;;;;;;;52.73;27.48;;;;;;;10.32;98.39;100244.31;1736047;82;20984;-45
2021/10/13 08:44:32;;;;;;;50.55;29.02;;;;;;;10.32;98.52;100252.07;1736254;82;21530;-45
2021/10/13 08:46:59;;;;;;;86.15;31.68;;;;;;;10.29;98.54;100250.84;1715484;82;21786;-45
2021/10/13 08:49:25;;;;;;;65.05;32.50;;;;;;;10.25;98.60;100248.34;1736080;82;20901;-46
2021/10/13 08:51:52;;;;;;;81.80;30.77;;;;;;;10.20;98.64;100256.19;1736652;82;20893;-45
2021/10/13 08:54:19;;;;;;;54.35;30.72;;;;;;;10.11;98.87;100246.03;1736006;82;20897;-46
2021/10/13 08:56:48;;;;;;;60.92;32.78;;;;;;;10.05;99.31;100230.19;1736109;82;20949;-45
2021/10/13 08:59:42;;;;;;;45.52;30.85;;;;;;;10.01;99.48;100196.23;1736080;82;21069;-44
2021/10/13 09:02:10;;;;;;;49.88;30.57;;;;;;;9.98;99.55;100158.38;1735985;82;21672;-44
2021/10/13 09:04:39;;;;;;;51.58;33.23;;;;;;;9.94;99.75;100137.31;1736330;82;20882;-45
2021/10/13 09:07:05;;;;;;;50.85;32.73;;;;;;;9.87;100.00;100120.23;1736042;82;20984;-44
2021/10/13 09:09:35;;;;;;;50.10;32.42;;;;;;;9.82;100.00;100102.69;1738890;81;21395;-44
2021/10/13 09:43:03;;;;;;;44.70;28.60;;;;;;;9.45;100.00;100010.81;1744252;82;21011;-43
2021/10/13 09:45:39;;;;;;;44.73;28.80;;;;;;;9.46;100.00;99993.13;1744347;82;21143;-43
2021/10/13 09:48:05;;;;;;;41.80;28.75;;;;;;;9.48;100.00;99969.44;1741055;82;21430;-43
2021/10/13 09:50:44;;;;;;;47.08;28.75;;;;;;;9.49;100.00;99964.67;1744142;82;20913;-43
2021/10/13 09:53:22;;;;;;;45.45;28.98;;;;;;;9.56;100.00;99972.28;1714752;82;21049;-43
2021/10/13 09:55:49;;;;;;;46.42;28.85;;;;;;;9.58;100.00;99971.80;1744123;82;20972;-44
2021/10/13 09:58:35;;;;;;;41.92;27.02;;;;;;;9.66;100.00;99977.64;1744173;82;21153;-43
2021/10/13 10:01:18;;;;;;;42.98;28.75;;;;;;;9.70;100.00;99985.73;1744291;81;20920;-43
2021/10/13 10:03:46;;;;;;;51.00;28.67;;;;;;;9.78;100.00;100010.98;1714684;82;20969;-44
2021/10/13 10:06:14;;;;;;;46.35;29.75;;;;;;;9.85;100.00;100016.02;1744237;82;20945;-44
2021/10/13 10:09:06;;;;;;;45.10;28.65;;;;;;;9.91;100.00;100027.07;1715183;82;20877;-44
2021/10/13 10:11:34;;;;;;;40.43;28.35;;;;;;;10.00;100.00;100039.38;1743642;82;21166;-46
2021/10/13 10:14:08;;;;;;;52.23;28.65;;;;;;;10.09;100.00;100033.15;1714856;82;20924;-45
2021/10/13 10:16:39;;;;;;;43.92;28.50;;;;;;;10.17;100.00;100031.22;1727205;82;20925;-45
2021/10/13 10:19:21;;;;;;;53.15;29.27;;;;;;;10.27;100.00;100039.19;1744153;82;21463;-43
2021/10/13 10:21:57;;;;;;;43.20;28.52;;;;;;;10.37;100.00;100040.25;1744146;82;21007;-42
2021/10/13 10:24:32;;;;;;;46.63;29.50;;;;;;;10.44;100.00;100041.39;1744259;82;21066;-43
2021/10/13 10:27:32;;;;;;;44.55;29.00;;;;;;;10.53;100.00;100042.91;1744246;82;20964;-43
2021/10/13 10:30:12;;;;;;;44.90;29.12;;;;;;;10.62;100.00;100042.67;1744108;82;20960;-45
2021/10/13 10:32:42;;;;;;;43.33;30.10;;;;;;;10.69;100.00;100039.92;1744243;82;20975;-45
2021/10/13 10:35:14;;;;;;;51.73;32.30;;;;;;;10.67;100.00;100042.56;1743037;82;20940;-45
2021/10/13 10:37:50;;;;;;;41.68;28.07;;;;;;;10.74;100.00;100044.10;1708851;84;21149;-45
2021/10/13 10:40:33;;;;;;;42.85;27.75;;;;;;;10.86;100.00;100048.54;1679918;85;20948;-45
2021/10/13 10:43:14;;;;;;;44.18;27.27;;;;;;;10.88;100.00;100054.09;1708833;84;20944;-44
2021/10/13 10:45:52;;;;;;;39.18;28.95;;;;;;;10.93;100.00;100051.40;1695181;84;20924;-44
2021/10/13 10:48:22;;;;;;;37.88;26.20;;;;;;;10.92;100.00;100055.71;1666256;84;21011;-45
2021/10/13 10:50:57;;;;;;;45.25;27.77;;;;;;;11.02;100.00;100045.13;1696064;84;21116;-44
2021/10/13 10:53:32;;;;;;;42.58;26.87;;;;;;;11.12;100.00;100039.26;1695987;84;20936;-45
2021/10/13 10:56:13;;;;;;;36.35;27.20;;;;;;;11.30;100.00;100034.84;1687205;84;21110;-45
2021/10/13 10:58:41;;;;;;;40.33;28.23;;;;;;;11.49;100.00;100022.23;1681833;84;20994;-45
2021/10/13 11:01:15;;;;;;;47.30;27.73;;;;;;;11.60;100.00;100017.99;1622291;84;20916;-45
2021/10/13 11:03:44;;;;;;;42.08;27.90;;;;;;;11.68;100.00;100024.25;1666694;84;21147;-42
2021/10/13 11:06:17;;;;;;;43.95;27.67;;;;;;;11.76;100.00;100025.33;1696237;84;21056;-43
2021/10/13 11:09:03;;;;;;;43.87;28.05;;;;;;;11.74;100.00;100026.66;1696161;84;20959;-43
2021/10/13 11:11:49;;;;;;;46.88;29.32;;;;;;;11.70;100.00;100022.45;1696175;83;21018;-43
2021/10/13 11:14:24;;;;;;;49.75;28.73;;;;;;;11.71;100.00;100018.14;1696223;84;21506;-44
2021/10/13 11:16:57;;;;;;;54.05;31.48;;;;;;;11.70;100.00;100015.98;1700798;83;20909;-44
2021/10/13 11:19:31;;;;;;;47.57;31.37;;;;;;;11.63;100.00;100015.77;1696538;84;21565;-44
2021/10/13 11:22:06;;;;;;;53.70;32.83;;;;;;;11.62;100.00;100014.08;1696145;83;20896;-44
2021/10/13 11:24:34;;;;;;;50.20;32.50;;;;;;;11.58;100.00;100005.98;1696214;84;20885;-44
2021/10/13 11:27:00;;;;;;;51.45;31.05;;;;;;;11.61;100.00;99997.66;1696022;84;21043;-44
2021/10/13 11:29:31;;;;;;;50.98;29.55;;;;;;;11.62;100.00;99998.09;1696404;83;21039;-42
2021/10/13 11:32:15;;;;;;;44.83;30.25;;;;;;;11.59;100.00;99997.31;1696113;84;20981;-42
2021/10/13 11:34:58;;;;;;;51.80;31.55;;;;;;;11.49;100.00;99996.31;1696453;84;21031;-44
2021/10/13 11:37:28;;;;;;;53.25;31.40;;;;;;;11.40;100.00;99994.43;1669556;84;21011;-45
2021/10/13 11:39:54;;;;;;;51.18;30.68;;;;;;;11.37;100.00;99992.77;1696454;84;20960;-45
2021/10/13 11:42:24;;;;;;;54.15;34.40;;;;;;;11.36;100.00;99987.18;1696338;84;21128;-45
2021/10/13 11:44:55;;;;;;;53.50;33.33;;;;;;;11.32;100.00;99977.80;1696481;84;20877;-44
2021/10/13 11:47:34;;;;;;;57.58;36.10;;;;;;;11.31;100.00;99980.00;1696149;84;21566;-44
2021/10/13 11:50:05;;;;;;;46.28;32.75;;;;;;;11.31;100.00;99985.17;1696096;83;20922;-44
2021/10/13 11:52:35;;;;;;;54.90;34.48;;;;;;;11.33;100.00;99984.69;1667890;84;21687;-44
2021/10/13 11:55:14;;;;;;;50.80;33.40;;;;;;;11.36;100.00;99993.20;1696107;84;21301;-44
2021/10/13 11:57:44;;;;;;;53.38;34.85;;;;;;;11.40;100.00;99991.84;1696167;83;20904;-44
2021/10/13 12:00:18;;;;;;;51.40;34.33;;;;;;;11.35;100.00;99991.96;1692196;84;20980;-44
2021/10/13 12:03:06;;;;;;;56.83;35.45;;;;;;;11.29;100.00;99986.50;1696364;84;20932;-43